Time;durP1;ratioP1;P1;durP2;ratioP2;P2;SDS_P1;SDS_P2;PMS_P1;PMS_P2;Temp;Humidity;BMP_temperature;BMP_pressure;BME280_temperature;BME280_humidity;BME280_pressure;Samples;Min_cycle;Max_cycle;Signal;HPM_P1;HPM_P2
2021/07/23 00:01:11;;;;;;;8.75;4.30;;;19.00;99.90;;;;;;4998224;28;20541;-93
2021/07/23 00:03:38;;;;;;;9.60;3.65;;;19.00;99.90;;;;;;5013541;28;20317;-92
2021/07/23 00:06:03;;;;;;;5.30;3.95;;;19.00;99.90;;;;;;5012773;28;20634;-94
2021/07/23 00:08:29;;;;;;;5.80;3.90;;;19.00;99.90;;;;;;4997538;28;20177;-91
2021/07/23 00:10:55;;;;;;;8.35;4.13;;;19.00;99.90;;;;;;5013652;28;20193;-92
2021/07/23 00:13:20;;;;;;;6.25;4.00;;;19.00;99.90;;;;;;5030465;28;20193;-93
2021/07/23 00:15:46;;;;;;;5.55;3.78;;;19.00;99.90;;;;;;5013409;28;20204;-92
2021/07/23 00:18:12;;;;;;;6.47;3.85;;;18.90;99.90;;;;;;5013658;28;20178;-92
2021/07/23 00:20:37;;;;;;;9.55;4.63;;;18.90;99.90;;;;;;4979662;28;20733;-91
2021/07/23 00:23:03;;;;;;;8.93;4.13;;;18.90;99.90;;;;;;4996500;28;20307;-92
2021/07/23 00:25:29;;;;;;;5.75;4.18;;;18.90;99.90;;;;;;4997012;28;20549;-92
2021/07/23 00:27:54;;;;;;;12.95;4.13;;;18.80;99.90;;;;;;5013700;28;20173;-93
2021/07/23 00:30:21;;;;;;;6.20;4.40;;;18.80;99.90;;;;;;5012961;28;20220;-92
2021/07/23 00:32:47;;;;;;;8.82;4.18;;;18.80;99.90;;;;;;5012854;28;20186;-93
2021/07/23 00:35:13;;;;;;;8.13;5.10;;;18.80;99.90;;;;;;4996041;28;20188;-94
2021/07/23 00:37:39;;;;;;;13.77;4.13;;;18.80;99.90;;;;;;5013003;28;20177;-90
2021/07/23 00:40:06;;;;;;;6.45;4.30;;;18.70;99.90;;;;;;5012104;28;20181;-89
2021/07/23 00:42:34;;;;;;;7.82;4.47;;;18.70;99.90;;;;;;5012852;28;20220;-90
2021/07/23 00:45:00;;;;;;;8.32;4.57;;;18.70;99.90;;;;;;5012229;28;20203;-89
2021/07/23 00:47:26;;;;;;;7.57;4.45;;;18.70;99.90;;;;;;5012120;28;20642;-89
2021/07/23 00:49:52;;;;;;;10.30;4.35;;;18.90;99.90;;;;;;5012253;28;20536;-89
2021/07/23 00:52:18;;;;;;;9.02;4.00;;;18.80;99.90;;;;;;5028758;28;20178;-91
2021/07/23 00:54:44;;;;;;;6.65;4.80;;;17.20;99.90;;;;;;5029118;28;20239;-90
2021/07/23 00:57:10;;;;;;;9.48;3.88;;;18.60;99.90;;;;;;5013645;28;20578;-91
2021/07/23 00:59:36;;;;;;;8.07;4.22;;;18.40;99.90;;;;;;5029217;28;20169;-90
2021/07/23 01:02:02;;;;;;;10.88;4.32;;;18.50;99.90;;;;;;5011710;28;20248;-91
2021/07/23 01:04:28;;;;;;;10.13;4.30;;;18.40;99.90;;;;;;5028452;28;20193;-89
2021/07/23 01:06:56;;;;;;;7.53;4.22;;;18.40;99.90;;;;;;4996430;28;20731;-91
2021/07/23 01:09:22;;;;;;;11.27;4.05;;;18.50;99.90;;;;;;5012484;28;20193;-90
2021/07/23 01:11:47;;;;;;;8.38;4.03;;;18.40;99.90;;;;;;5028837;28;20181;-90
2021/07/23 01:14:13;;;;;;;7.20;3.85;;;18.40;99.90;;;;;;5011658;28;20181;-90
2021/07/23 01:16:39;;;;;;;8.45;4.35;;;18.50;99.90;;;;;;5028301;28;20180;-91
2021/07/23 01:19:06;;;;;;;11.52;4.57;;;18.40;99.90;;;;;;5011717;28;20177;-91
2021/07/23 01:21:32;;;;;;;6.75;4.18;;;18.40;99.90;;;;;;5012377;28;20649;-91
2021/07/23 01:23:59;;;;;;;10.18;5.68;;;18.40;99.90;;;;;;5012882;28;20242;-90
2021/07/23 01:26:25;;;;;;;8.65;5.00;;;18.60;99.90;;;;;;5028607;28;20188;-90
2021/07/23 01:28:51;;;;;;;16.83;5.65;;;;;;;;;;5013233;28;20546;-90
2021/07/23 01:31:17;;;;;;;16.20;5.65;;;18.40;99.90;;;;;;4996669;28;20991;-89
2021/07/23 01:33:43;;;;;;;10.45;5.07;;;18.40;99.90;;;;;;5032228;28;20276;-91
2021/07/23 01:36:09;;;;;;;10.13;5.35;;;;;;;;;;5016616;28;20240;-90
2021/07/23 01:38:41;;;;;;;11.10;5.50;;;18.40;99.90;;;;;;5032061;28;20229;-90
2021/07/23 01:41:07;;;;;;;9.18;5.00;;;18.40;99.90;;;;;;5018954;28;20169;-89
2021/07/23 01:43:33;;;;;;;12.70;5.25;;;18.40;99.90;;;;;;5020650;28;20735;-91
2021/07/23 01:45:59;;;;;;;8.55;5.05;;;18.40;99.90;;;;;;5015543;28;20203;-89
2021/07/23 01:48:25;;;;;;;8.30;4.75;;;18.50;99.90;;;;;;4999319;28;20541;-89
2021/07/23 01:50:51;;;;;;;6.43;4.15;;;18.30;99.90;;;;;;5016757;28;20169;-90
2021/07/23 01:53:17;;;;;;;15.70;4.90;;;18.50;99.90;;;;;;5015017;28;20266;-90
2021/07/23 01:55:44;;;;;;;9.60;4.63;;;18.80;99.90;;;;;;5016928;28;20177;-90
2021/07/23 01:58:13;;;;;;;9.98;4.15;;;18.10;99.90;;;;;;5031963;28;20521;-90
2021/07/23 02:00:39;;;;;;;7.00;4.50;;;18.40;99.90;;;;;;4998909;28;20324;-90
2021/07/23 02:03:04;;;;;;;6.95;4.65;;;18.30;99.90;;;;;;5015179;28;20300;-92
2021/07/23 02:05:36;;;;;;;15.32;4.90;;;18.20;99.90;;;;;;5031799;28;20192;-92
2021/07/23 02:08:02;;;;;;;8.20;5.53;;;18.20;99.90;;;;;;5014219;28;20672;-91
2021/07/23 02:10:28;;;;;;;9.15;4.45;;;18.10;99.90;;;;;;5015435;28;20177;-91
2021/07/23 02:12:56;;;;;;;7.47;5.28;;;18.20;99.90;;;;;;5031639;28;20263;-90
2021/07/23 02:15:22;;;;;;;9.27;6.07;;;18.30;99.90;;;;;;4998339;28;20235;-90
2021/07/23 02:17:48;;;;;;;10.70;5.82;;;15.90;99.90;;;;;;5016622;28;20184;-89
2021/07/23 02:20:14;;;;;;;13.48;6.35;;;;;;;;;;4982226;28;20185;-89
2021/07/23 02:22:39;;;;;;;12.68;6.25;;;18.10;99.90;;;;;;5031551;28;20300;-90
2021/07/23 02:25:06;;;;;;;11.63;6.18;;;18.00;99.90;;;;;;5031055;28;20268;-91
2021/07/23 02:27:35;;;;;;;10.25;5.65;;;16.30;99.90;;;;;;5016092;28;20227;-90
2021/07/23 02:30:01;;;;;;;10.98;6.10;;;17.90;99.90;;;;;;5031539;28;20545;-90
2021/07/23 02:32:27;;;;;;;10.02;5.35;;;18.10;99.90;;;;;;5014564;28;20185;-90
2021/07/23 02:34:53;;;;;;;8.02;5.20;;;18.10;99.90;;;;;;5016342;28;20173;-90
2021/07/23 02:37:19;;;;;;;11.15;5.30;;;17.90;99.90;;;;;;5026265;28;20177;-88
2021/07/23 02:39:45;;;;;;;13.10;5.32;;;17.90;99.90;;;;;;5021305;28;20241;-88
2021/07/23 02:42:10;;;;;;;11.52;5.30;;;17.80;99.90;;;;;;5053330;28;20182;-89
2021/07/23 02:44:36;;;;;;;9.45;5.18;;;17.80;99.90;;;;;;5029878;28;20656;-89
2021/07/23 02:47:02;;;;;;;10.05;5.35;;;17.80;99.90;;;;;;5014526;28;20188;-89
2021/07/23 02:49:27;;;;;;;10.00;5.95;;;17.70;99.90;;;;;;5014582;28;20181;-89
2021/07/23 02:51:53;;;;;;;11.00;5.47;;;17.90;99.90;;;;;;4999996;28;20264;-91
2021/07/23 02:54:19;;;;;;;11.20;5.60;;;17.70;99.90;;;;;;5032152;28;20183;-90
2021/07/23 02:56:44;;;;;;;12.40;6.47;;;17.70;99.90;;;;;;5015042;28;20272;-90
2021/07/23 02:59:10;;;;;;;13.00;5.88;;;17.70;99.90;;;;;;5015093;28;20244;-90
2021/07/23 03:01:37;;;;;;;9.82;5.97;;;17.70;99.90;;;;;;5030872;28;20184;-91
2021/07/23 03:04:04;;;;;;;11.98;6.70;;;18.00;99.90;;;;;;5015928;28;20216;-90
2021/07/23 03:06:29;;;;;;;12.52;6.70;;;17.80;99.90;;;;;;5014594;28;20199;-90
2021/07/23 03:08:58;;;;;;;15.27;5.72;;;17.70;99.90;;;;;;4998380;28;20705;-90
2021/07/23 03:11:24;;;;;;;10.05;6.05;;;18.00;99.90;;;;;;5014992;28;20170;-91
2021/07/23 03:13:49;;;;;;;10.13;5.78;;;18.00;99.90;;;;;;5015223;28;20192;-89
2021/07/23 03:16:15;;;;;;;11.80;6.35;;;18.00;99.90;;;;;;5030811;28;20181;-91
2021/07/23 03:18:42;;;;;;;14.02;6.40;;;17.90;99.90;;;;;;5031477;28;20188;-91
2021/07/23 03:21:08;;;;;;;8.50;6.03;;;17.90;99.90;;;;;;5015087;28;20174;-92
2021/07/23 03:23:34;;;;;;;6.43;5.35;;;16.70;99.90;;;;;;5014890;28;20209;-92
2021/07/23 03:26:04;;;;;;;9.98;5.20;;;17.90;99.90;;;;;;5014180;28;20660;-92
2021/07/23 03:28:29;;;;;;;9.98;5.60;;;17.90;99.90;;;;;;5014715;28;20196;-92
2021/07/23 03:30:55;;;;;;;9.02;5.03;;;18.00;99.90;;;;;;5030564;28;20540;-90
2021/07/23 03:33:21;;;;;;;8.68;5.65;;;18.10;99.90;;;;;;5014216;28;20181;-90
2021/07/23 03:35:47;;;;;;;10.63;6.13;;;18.00;99.90;;;;;;5031386;28;20173;-90
2021/07/23 03:38:14;;;;;;;8.98;5.55;;;18.00;99.90;;;;;;5013074;28;20225;-89
2021/07/23 03:40:40;;;;;;;8.65;5.30;;;18.10;99.90;;;;;;5014544;28;20185;-89
2021/07/23 03:43:06;;;;;;;12.55;5.47;;;18.10;99.90;;;;;;5029770;28;20220;-89
2021/07/23 03:45:32;;;;;;;8.35;5.63;;;18.00;99.90;;;;;;5013290;28;20185;-89
2021/07/23 03:47:57;;;;;;;18.50;6.03;;;18.10;99.90;;;;;;5014730;28;20213;-90
2021/07/23 03:50:23;;;;;;;8.93;5.63;;;18.20;99.90;;;;;;5014645;28;20637;-90
2021/07/23 03:52:49;;;;;;;9.18;5.80;;;18.20;99.90;;;;;;5029845;28;20185;-88
2021/07/23 03:55:16;;;;;;;12.52;5.82;;;18.20;99.90;;;;;;5012597;28;20235;-88
2021/07/23 03:57:41;;;;;;;17.23;5.43;;;18.10;99.90;;;;;;5014687;28;20227;-88
2021/07/23 04:00:08;;;;;;;20.67;5.85;;;18.20;99.90;;;;;;5014232;28;20204;-89
2021/07/23 04:02:37;;;;;;;12.80;5.57;;;18.20;99.90;;;;;;4996868;28;20213;-88
2021/07/23 04:05:04;;;;;;;10.77;5.72;;;18.20;99.90;;;;;;5029540;28;20646;-89
2021/07/23 04:07:33;;;;;;;12.18;5.35;;;18.30;99.90;;;;;;5014009;28;20218;-88
2021/07/23 04:10:00;;;;;;;14.40;5.82;;;18.30;99.90;;;;;;4997119;28;20199;-89
2021/07/23 04:12:26;;;;;;;9.70;5.53;;;18.30;99.90;;;;;;5013871;28;20189;-88
2021/07/23 04:14:52;;;;;;;9.50;5.45;;;18.40;99.90;;;;;;5012877;28;20188;-88
2021/07/23 04:17:17;;;;;;;11.68;5.75;;;18.40;99.90;;;;;;5013682;28;20181;-88
2021/07/23 04:19:43;;;;;;;8.98;5.80;;;18.40;99.90;;;;;;5029447;28;20638;-87
2021/07/23 04:22:09;;;;;;;9.85;5.25;;;18.40;99.90;;;;;;5012482;28;20612;-88
2021/07/23 04:24:36;;;;;;;12.13;6.22;;;18.40;99.90;;;;;;5028979;28;20537;-89
2021/07/23 04:27:01;;;;;;;9.55;5.63;;;18.40;99.90;;;;;;4997032;28;20312;-88
2021/07/23 04:29:27;;;;;;;9.55;6.07;;;18.50;99.90;;;;;;5013604;28;20541;-88
2021/07/23 04:31:53;;;;;;;14.63;5.90;;;18.50;99.90;;;;;;4996207;28;20196;-89
2021/07/23 04:34:18;;;;;;;8.88;5.78;;;18.50;99.90;;;;;;5013699;28;20184;-89
2021/07/23 04:36:44;;;;;;;12.85;5.82;;;18.60;99.90;;;;;;5013897;28;20773;-88
2021/07/23 04:39:10;;;;;;;10.23;5.60;;;18.60;99.90;;;;;;4979845;28;20235;-88
2021/07/23 04:41:35;;;;;;;10.50;5.97;;;18.60;99.90;;;;;;4980045;28;20204;-88
2021/07/23 04:44:01;;;;;;;8.82;6.32;;;19.40;99.90;;;;;;5028351;28;20217;-88
2021/07/23 04:46:27;;;;;;;15.07;6.30;;;18.60;99.90;;;;;;4979632;28;20185;-89
2021/07/23 04:48:52;;;;;;;14.05;6.13;;;18.70;99.90;;;;;;5020648;28;20252;-91
2021/07/23 04:51:18;;;;;;;11.70;6.05;;;18.70;99.90;;;;;;5011998;28;20243;-88
2021/07/23 04:53:44;;;;;;;21.38;7.20;;;18.70;99.90;;;;;;5014836;28;20199;-91
2021/07/23 04:56:09;;;;;;;22.35;7.30;;;18.80;99.90;;;;;;5014065;28;20238;-89
2021/07/23 04:58:35;;;;;;;14.32;7.15;;;18.80;99.90;;;;;;4995776;28;20196;-89
2021/07/23 05:01:01;;;;;;;15.50;7.22;;;18.90;99.90;;;;;;5029713;28;20192;-89
2021/07/23 05:03:46;;;;;;;8.70;5.60;;;18.90;99.90;;;;;;4995013;28;20209;-89
2021/07/23 05:06:12;;;;;;;11.13;6.13;;;18.90;99.90;;;;;;5011093;28;20247;-94
2021/07/23 05:08:38;;;;;;;17.77;6.90;;;19.00;99.90;;;;;;5028865;28;20185;-91
2021/07/23 05:11:10;;;;;;;14.85;6.15;;;21.20;99.90;;;;;;5031126;28;20219;-93
2021/07/23 05:13:36;;;;;;;12.30;7.28;;;19.00;99.90;;;;;;4995873;28;20189;-93
2021/07/23 05:16:03;;;;;;;13.95;7.53;;;19.00;99.90;;;;;;4979935;28;20189;-91
2021/07/23 05:18:30;;;;;;;13.80;8.07;;;19.00;99.90;;;;;;5012586;28;20185;-94
2021/07/23 05:20:56;;;;;;;13.98;7.97;;;19.10;99.90;;;;;;5012169;28;20183;-90
2021/07/23 05:23:22;;;;;;;22.05;7.35;;;19.10;99.90;;;;;;4995419;28;20221;-91
2021/07/23 05:25:48;;;;;;;12.35;7.43;;;19.20;99.90;;;;;;5011218;28;20239;-91
2021/07/23 05:28:14;;;;;;;11.90;7.20;;;19.30;99.90;;;;;;4995921;28;20189;-91
2021/07/23 05:30:41;;;;;;;14.52;6.22;;;19.30;99.90;;;;;;5011564;28;20173;-90
2021/07/23 05:33:09;;;;;;;12.70;6.95;;;19.30;99.90;;;;;;5003891;28;20635;-90
2021/07/23 05:35:35;;;;;;;16.88;6.88;;;19.30;99.90;;;;;;4993418;28;20191;-90
2021/07/23 05:38:01;;;;;;;11.93;7.25;;;19.30;99.90;;;;;;5012439;28;20668;-90
2021/07/23 05:40:26;;;;;;;17.20;6.28;;;19.40;99.90;;;;;;5013615;28;20185;-91
2021/07/23 05:42:55;;;;;;;20.35;6.78;;;19.40;99.90;;;;;;5012494;28;20586;-91
2021/07/23 05:45:21;;;;;;;11.60;6.93;;;19.50;99.90;;;;;;4996367;28;20185;-90
2021/07/23 05:47:46;;;;;;;12.40;7.50;;;19.60;99.90;;;;;;5012759;28;20185;-91
2021/07/23 05:50:12;;;;;;;78.88;10.82;;;19.60;99.90;;;;;;4995757;28;20538;-92
2021/07/23 05:52:38;;;;;;;14.93;6.43;;;19.60;99.90;;;;;;4996955;28;20188;-94
2021/07/23 05:55:05;;;;;;;10.25;6.57;;;19.70;99.90;;;;;;5028543;28;20606;-89
2021/07/23 05:57:30;;;;;;;16.85;6.65;;;19.80;99.90;;;;;;5014495;28;20212;-93
2021/07/23 05:59:56;;;;;;;13.70;6.65;;;19.90;99.90;;;;;;5015198;28;20196;-93
2021/07/23 06:02:22;;;;;;;9.52;5.97;;;19.90;99.90;;;;;;5012494;28;20181;-90
2021/07/23 06:04:47;;;;;;;11.40;6.53;;;19.90;99.90;;;;;;4996330;28;20548;-91
2021/07/23 06:07:14;;;;;;;16.63;7.10;;;19.90;99.90;;;;;;4996032;28;20186;-91
2021/07/23 06:09:40;;;;;;;22.88;6.32;;;20.00;99.90;;;;;;5011738;28;20586;-88
2021/07/23 06:12:06;;;;;;;18.65;6.57;;;20.10;99.90;;;;;;4995464;28;20209;-87
2021/07/23 06:14:32;;;;;;;19.45;6.35;;;20.20;99.90;;;;;;5011699;28;20220;-88
2021/07/23 06:16:58;;;;;;;16.75;7.03;;;20.30;99.90;;;;;;5012522;28;20185;-87
2021/07/23 06:19:24;;;;;;;13.45;6.18;;;20.30;99.90;;;;;;4998541;28;20182;-87
2021/07/23 06:21:50;;;;;;;15.88;6.15;;;20.30;99.90;;;;;;5015564;28;20622;-88
2021/07/23 06:24:16;;;;;;;13.00;6.43;;;20.40;99.90;;;;;;5014958;28;20205;-88
2021/07/23 06:26:43;;;;;;;24.33;7.68;;;20.50;99.90;;;;;;5015966;28;20676;-87
2021/07/23 06:29:09;;;;;;;15.63;6.60;;;20.50;99.90;;;;;;4995419;28;20697;-87
2021/07/23 06:31:35;;;;;;;14.85;6.43;;;20.50;99.90;;;;;;5011055;28;20660;-87
2021/07/23 06:34:02;;;;;;;10.93;6.10;;;20.50;99.90;;;;;;5006829;28;20283;-88
2021/07/23 06:36:30;;;;;;;11.40;6.07;;;20.50;99.90;;;;;;5008053;28;20195;-88
2021/07/23 06:38:56;;;;;;;11.95;6.13;;;20.50;99.90;;;;;;4995944;28;20241;-87
2021/07/23 06:41:21;;;;;;;8.88;5.45;;;20.50;99.90;;;;;;5006489;28;20954;-88
2021/07/23 06:43:47;;;;;;;12.25;6.47;;;20.60;99.90;;;;;;4994180;28;20212;-87
2021/07/23 06:46:12;;;;;;;17.88;7.22;;;20.60;99.90;;;;;;5011713;28;20196;-87
2021/07/23 06:48:38;;;;;;;15.05;6.97;;;20.60;99.90;;;;;;4997928;28;20182;-86
2021/07/23 06:51:04;;;;;;;14.13;6.15;;;20.70;99.90;;;;;;4992568;28;20188;-86
2021/07/23 06:53:30;;;;;;;8.73;5.70;;;20.80;99.90;;;;;;5001784;28;20190;-88
2021/07/23 06:55:56;;;;;;;12.98;5.75;;;20.80;99.90;;;;;;4980207;28;20192;-87
2021/07/23 06:58:22;;;;;;;11.70;5.90;;;20.80;99.90;;;;;;5004330;28;20257;-86
2021/07/23 07:00:48;;;;;;;13.00;5.78;;;20.80;99.90;;;;;;4985603;28;20270;-87
2021/07/23 07:03:16;;;;;;;10.70;6.75;;;20.90;99.90;;;;;;4995453;28;20352;-87
2021/07/23 07:05:42;;;;;;;10.60;6.00;;;20.90;99.90;;;;;;4993972;28;20185;-86
2021/07/23 07:08:08;;;;;;;10.32;5.50;;;21.00;99.90;;;;;;5000155;28;20200;-87
2021/07/23 07:10:33;;;;;;;8.55;5.00;;;21.00;99.90;;;;;;4987188;28;20661;-87
2021/07/23 07:13:00;;;;;;;9.25;5.75;;;21.00;99.90;;;;;;4996622;28;20682;-86
2021/07/23 07:15:27;;;;;;;9.02;5.28;;;21.00;99.90;;;;;;4990896;28;20260;-86
2021/07/23 07:18:00;;;;;;;8.50;5.57;;;21.00;99.90;;;;;;4977837;28;20963;-87
2021/07/23 07:20:26;;;;;;;7.85;5.05;;;21.10;99.90;;;;;;5001958;28;20193;-85
2021/07/23 07:22:53;;;;;;;7.18;4.65;;;21.10;99.90;;;;;;4993334;28;20260;-86
2021/07/23 07:25:22;;;;;;;11.50;5.65;;;21.20;99.90;;;;;;4987964;28;20186;-88
2021/07/23 07:27:48;;;;;;;9.52;5.93;;;21.30;99.90;;;;;;5002696;28;20185;-88
2021/07/23 07:30:14;;;;;;;9.82;5.15;;;21.30;99.90;;;;;;4996415;28;20209;-87
2021/07/23 07:32:40;;;;;;;8.63;5.35;;;21.40;99.90;;;;;;4993463;28;20193;-86
2021/07/23 07:35:07;;;;;;;8.90;4.88;;;21.40;99.90;;;;;;4993699;28;20873;-87
2021/07/23 07:37:32;;;;;;;8.25;5.00;;;21.40;99.90;;;;;;5011426;28;20197;-86
2021/07/23 07:39:58;;;;;;;9.68;4.53;;;21.50;99.90;;;;;;5009565;28;20182;-86
2021/07/23 07:42:24;;;;;;;6.88;4.70;;;21.60;99.90;;;;;;4987298;28;20193;-86
2021/07/23 07:44:50;;;;;;;7.40;4.32;;;21.60;99.90;;;;;;4994742;28;20194;-86
2021/07/23 07:47:16;;;;;;;6.93;4.53;;;21.60;99.90;;;;;;5000407;28;20650;-86
2021/07/23 07:49:41;;;;;;;11.68;5.07;;;21.60;99.90;;;;;;5011627;28;20189;-86
2021/07/23 07:52:08;;;;;;;9.13;5.13;;;21.70;99.90;;;;;;5013207;28;20251;-87
2021/07/23 07:54:34;;;;;;;9.98;4.30;;;21.70;99.90;;;;;;5011896;28;20268;-88
2021/07/23 07:57:09;;;;;;;10.32;5.00;;;21.70;99.90;;;;;;5011606;28;20268;-88
2021/07/23 07:59:37;;;;;;;21.83;5.40;;;21.60;99.90;;;;;;5000691;28;20172;-88
2021/07/23 08:02:06;;;;;;;9.48;5.18;;;21.70;99.90;;;;;;5012721;28;20653;-87
2021/07/23 08:04:31;;;;;;;9.43;5.47;;;21.80;99.90;;;;;;5012002;28;20693;-87
2021/07/23 08:06:57;;;;;;;8.65;5.03;;;21.80;99.90;;;;;;5012753;28;20196;-88
2021/07/23 08:09:23;;;;;;;10.20;5.72;;;21.90;99.90;;;;;;4991446;28;20186;-87
2021/07/23 08:11:49;;;;;;;10.27;5.00;;;21.80;99.90;;;;;;5006456;28;20729;-87
2021/07/23 08:14:15;;;;;;;9.52;4.63;;;21.90;99.90;;;;;;4997410;28;20280;-87
2021/07/23 08:16:40;;;;;;;8.27;4.60;;;22.00;99.90;;;;;;5006204;28;20221;-87
2021/07/23 08:19:07;;;;;;;6.13;4.68;;;22.10;99.90;;;;;;5012689;28;20220;-88
2021/07/23 08:21:33;;;;;;;7.35;5.05;;;22.10;99.90;;;;;;5028168;28;20197;-88
2021/07/23 08:24:02;;;;;;;7.65;5.00;;;22.00;99.90;;;;;;5009746;28;20217;-90
2021/07/23 08:26:29;;;;;;;9.38;4.88;;;22.00;99.90;;;;;;5002873;28;20181;-88
2021/07/23 08:28:54;;;;;;;7.47;3.90;;;22.10;99.90;;;;;;5008314;28;20177;-88
2021/07/23 08:31:20;;;;;;;10.20;3.97;;;22.30;99.90;;;;;;5032244;28;20180;-87
2021/07/23 08:33:46;;;;;;;6.47;4.25;;;22.30;99.90;;;;;;5028181;28;20272;-88
2021/07/23 08:36:13;;;;;;;9.30;4.35;;;22.40;99.90;;;;;;5002674;28;20216;-89
2021/07/23 08:38:39;;;;;;;12.25;4.00;;;22.50;99.90;;;;;;4996947;28;20252;-89
2021/07/23 08:41:05;;;;;;;7.43;3.60;;;22.50;99.90;;;;;;4999180;28;20180;-89
2021/07/23 08:43:31;;;;;;;5.85;4.03;;;22.50;99.90;;;;;;4995837;28;20275;-89
2021/07/23 08:45:57;;;;;;;10.57;4.32;;;22.50;99.90;;;;;;4991827;28;20190;-88
2021/07/23 08:48:23;;;;;;;6.90;4.57;;;22.60;99.90;;;;;;4993171;28;20252;-88
2021/07/23 08:50:49;;;;;;;7.32;4.65;;;22.60;99.90;;;;;;4997231;28;20642;-89
2021/07/23 08:53:15;;;;;;;6.97;4.18;;;22.60;99.90;;;;;;5000970;28;20189;-89
2021/07/23 08:55:41;;;;;;;7.85;4.35;;;22.60;98.90;;;;;;5009631;28;20181;-89
2021/07/23 08:58:08;;;;;;;5.45;4.00;;;23.00;99.40;;;;;;5011114;28;20276;-90
2021/07/23 09:00:34;;;;;;;7.05;4.43;;;23.10;99.40;;;;;;5011212;28;20189;-89
2021/07/23 09:03:02;;;;;;;8.45;4.68;;;23.10;99.50;;;;;;5000267;28;20619;-92
2021/07/23 09:05:30;;;;;;;11.23;4.65;;;23.10;99.90;;;;;;5012210;28;20239;-86
2021/07/23 09:08:22;;;;;;;9.20;4.20;;;22.90;99.40;;;;;;5009347;28;20564;-84
2021/07/23 09:11:05;;;;;;;5.13;4.28;;;23.10;99.90;;;;;;5005530;28;20557;-90
2021/07/23 09:13:30;;;;;;;6.47;4.22;;;23.20;99.20;;;;;;4997723;28;20227;-86
2021/07/23 09:15:58;;;;;;;8.85;4.97;;;23.20;99.60;;;;;;5008062;28;20279;-86
2021/07/23 09:18:31;;;;;;;6.38;4.70;;;23.20;99.00;;;;;;5010211;28;20704;-86
2021/07/23 09:21:05;;;;;;;11.32;5.00;;;23.20;98.80;;;;;;5002240;28;20662;-86
2021/07/23 09:23:40;;;;;;;7.68;4.85;;;23.30;99.10;;;;;;5018394;28;20220;-86
2021/07/23 09:26:11;;;;;;;6.75;4.28;;;23.20;98.80;;;;;;4978949;28;20275;-85
2021/07/23 09:28:46;;;;;;;6.45;4.03;;;23.40;98.40;;;;;;4994275;28;20189;-87
2021/07/23 09:31:28;;;;;;;7.05;4.60;;;23.60;98.60;;;;;;4990268;28;20279;-86
2021/07/23 09:33:55;;;;;;;9.43;5.10;;;23.60;98.90;;;;;;4991594;28;20615;-87
2021/07/23 09:36:21;;;;;;;8.00;4.10;;;23.70;99.20;;;;;;4993971;28;20260;-87
2021/07/23 09:38:48;;;;;;;5.22;4.13;;;23.80;97.90;;;;;;4993212;28;20317;-88
2021/07/23 09:41:25;;;;;;;5.88;3.88;;;23.80;96.90;;;;;;4998271;28;20181;-87
2021/07/23 09:44:00;;;;;;;7.32;3.80;;;23.80;97.70;;;;;;5000662;28;20201;-88
2021/07/23 09:46:27;;;;;;;5.50;3.88;;;24.00;97.50;;;;;;5002796;28;20180;-88
2021/07/23 09:48:54;;;;;;;6.38;3.58;;;24.00;97.40;;;;;;5005512;28;20275;-89
2021/07/23 09:51:22;;;;;;;8.70;4.50;;;24.10;97.10;;;;;;5004385;28;20200;-89
2021/07/23 09:53:51;;;;;;;6.85;3.75;;;24.20;97.10;;;;;;5008488;28;20192;-89
2021/07/23 09:56:18;;;;;;;4.82;3.50;;;24.00;97.70;;;;;;5005495;28;20190;-89
2021/07/23 09:58:46;;;;;;;4.72;3.47;;;23.60;97.90;;;;;;5006842;28;20638;-88
2021/07/23 10:01:16;;;;;;;6.55;3.65;;;23.70;97.30;;;;;;5013195;28;20677;-89
2021/07/23 10:03:46;;;;;;;5.78;3.47;;;23.90;96.00;;;;;;5007257;28;20212;-88
2021/07/23 10:06:41;;;;;;;5.32;3.70;;;23.90;95.80;;;;;;5003554;28;20233;-88
2021/07/23 10:09:11;;;;;;;10.52;4.40;;;24.00;96.50;;;;;;5007989;28;20182;-88
2021/07/23 10:11:44;;;;;;;5.15;3.80;;;24.10;96.50;;;;;;5006925;28;20170;-88
2021/07/23 10:14:11;;;;;;;8.32;4.05;;;24.20;95.90;;;;;;5007416;28;20642;-87
2021/07/23 10:16:40;;;;;;;7.53;3.70;;;24.30;97.50;;;;;;5006744;28;20185;-87
2021/07/23 10:19:07;;;;;;;7.85;4.30;;;24.50;97.00;;;;;;5003129;28;20655;-90
2021/07/23 10:21:33;;;;;;;6.50;3.88;;;24.70;96.00;;;;;;5021580;28;20185;-89
2021/07/23 10:24:01;;;;;;;11.05;4.70;;;24.90;96.30;;;;;;5007918;28;20219;-90
2021/07/23 10:26:31;;;;;;;7.00;4.80;;;25.00;95.40;;;;;;5011337;28;20185;-88
2021/07/23 10:28:58;;;;;;;7.03;4.22;;;24.60;96.80;;;;;;5012117;28;20533;-89
2021/07/23 10:31:31;;;;;;;7.82;3.83;;;24.70;96.30;;;;;;5023514;28;20193;-86
2021/07/23 10:34:03;;;;;;;8.43;4.05;;;24.90;95.20;;;;;;5010602;28;20666;-87
2021/07/23 10:36:30;;;;;;;4.63;3.72;;;25.00;93.50;;;;;;5001674;28;20182;-91
2021/07/23 10:39:05;;;;;;;10.10;4.40;;;24.90;93.90;;;;;;5022393;28;20235;-89
2021/07/23 10:41:57;;;;;;;8.00;4.55;;;25.00;95.00;;;;;;5022664;28;20180;-89
2021/07/23 10:44:28;;;;;;;6.40;4.32;;;25.10;94.20;;;;;;4987569;28;20225;-89
2021/07/23 10:46:56;;;;;;;9.75;4.22;;;25.10;94.20;;;;;;5005093;28;20203;-88
2021/07/23 10:49:30;;;;;;;7.03;4.60;;;25.10;95.00;;;;;;5007804;28;20181;-91
2021/07/23 10:51:58;;;;;;;6.63;4.72;;;25.10;95.00;;;;;;5020692;28;20177;-88
2021/07/23 10:54:26;;;;;;;7.80;5.43;;;25.10;95.00;;;;;;5021540;28;20637;-87
2021/07/23 10:57:01;;;;;;;7.13;4.85;;;25.20;95.30;;;;;;5006184;28;20183;-88
2021/07/23 10:59:41;;;;;;;8.50;5.40;;;25.30;94.80;;;;;;5006191;28;20177;-87
2021/07/23 11:02:16;;;;;;;9.13;4.45;;;25.20;94.60;;;;;;5017812;28;20170;-87
2021/07/23 11:04:51;;;;;;;10.95;4.88;;;25.30;95.40;;;;;;5001216;28;20297;-88
2021/07/23 11:07:23;;;;;;;10.57;4.40;;;25.30;94.10;;;;;;5012776;28;20284;-88
2021/07/23 11:09:49;;;;;;;5.05;4.13;;;25.00;94.20;;;;;;5004209;28;20642;-87
2021/07/23 11:12:16;;;;;;;13.77;4.32;;;25.00;94.10;;;;;;5005329;28;20186;-88
2021/07/23 11:14:42;;;;;;;4.50;3.63;;;24.90;94.50;;;;;;5020807;28;20202;-88
2021/07/23 11:17:13;;;;;;;9.82;3.80;;;24.70;95.20;;;;;;5007458;28;20185;-88
2021/07/23 11:19:48;;;;;;;8.23;3.40;;;24.70;94.80;;;;;;5015434;28;20616;-86
2021/07/23 11:22:25;;;;;;;5.13;2.97;;;24.90;94.90;;;;;;5014254;28;20562;-87
2021/07/23 11:24:54;;;;;;;5.68;3.53;;;24.90;95.20;;;;;;5006967;28;20231;-88
2021/07/23 11:27:28;;;;;;;6.00;3.15;;;25.00;95.10;;;;;;5008691;28;20727;-88
2021/07/23 11:29:55;;;;;;;5.80;3.58;;;25.00;94.20;;;;;;5007165;28;20182;-87
2021/07/23 11:32:21;;;;;;;7.22;3.53;;;24.90;94.90;;;;;;5004698;28;20231;-87
2021/07/23 11:34:48;;;;;;;8.07;3.40;;;24.90;94.60;;;;;;5007609;28;20209;-87
2021/07/23 11:37:26;;;;;;;4.65;3.40;;;24.80;94.70;;;;;;5006833;28;20653;-88
2021/07/23 11:39:53;;;;;;;7.40;3.50;;;25.00;93.60;;;;;;5016892;28;20288;-89
2021/07/23 11:42:20;;;;;;;5.65;3.20;;;25.00;93.00;;;;;;5000545;28;20209;-88
2021/07/23 11:44:56;;;;;;;6.07;3.92;;;24.90;93.90;;;;;;5007898;28;20755;-89
2021/07/23 11:47:30;;;;;;;6.90;4.13;;;24.90;93.80;;;;;;5002612;28;20185;-91
2021/07/23 11:49:57;;;;;;;4.50;3.38;;;25.00;93.40;;;;;;4999685;28;20186;-89
2021/07/23 11:52:24;;;;;;;5.28;2.90;;;25.10;93.40;;;;;;5001450;28;20190;-90
2021/07/23 11:55:06;;;;;;;4.93;3.67;;;25.30;92.90;;;;;;5005059;28;20174;-88
2021/07/23 11:57:50;;;;;;;4.40;3.70;;;25.30;93.10;;;;;;5002038;28;20185;-90
2021/07/23 12:00:19;;;;;;;5.32;4.00;;;25.50;93.00;;;;;;5006206;28;20193;-88
2021/07/23 12:02:45;;;;;;;7.28;4.28;;;25.40;92.70;;;;;;5008576;28;20674;-90
2021/07/23 12:05:12;;;;;;;5.72;3.75;;;25.40;92.90;;;;;;5006946;28;20240;-91
2021/07/23 12:07:46;;;;;;;8.77;4.15;;;25.30;93.20;;;;;;5004364;28;20260;-89
2021/07/23 12:10:16;;;;;;;6.65;3.60;;;25.20;92.60;;;;;;5000360;28;20182;-89
2021/07/23 12:12:42;;;;;;;5.82;3.80;;;25.20;93.10;;;;;;5005857;28;20673;-91
2021/07/23 12:15:13;;;;;;;8.70;3.90;;;25.10;93.00;;;;;;5003563;28;20544;-92
2021/07/23 12:17:46;;;;;;;4.43;3.67;;;24.90;93.20;;;;;;5002751;28;20177;-88
2021/07/23 12:20:13;;;;;;;5.22;3.70;;;24.80;93.70;;;;;;5020824;28;20273;-90
2021/07/23 12:22:42;;;;;;;5.82;4.15;;;24.70;94.10;;;;;;5003182;28;20173;-91
2021/07/23 12:25:19;;;;;;;8.82;4.22;;;24.70;95.00;;;;;;5001089;28;20196;-90
2021/07/23 12:27:46;;;;;;;5.78;4.10;;;24.60;95.10;;;;;;5006797;28;20268;-90
2021/07/23 12:30:12;;;;;;;10.35;4.28;;;24.50;95.20;;;;;;5001844;28;20186;-91
2021/07/23 12:32:38;;;;;;;7.20;3.83;;;24.40;95.90;;;;;;5003232;28;20193;-92
2021/07/23 12:35:04;;;;;;;7.10;4.60;;;24.40;95.80;;;;;;5005406;28;20223;-90
2021/07/23 12:37:30;;;;;;;7.57;4.40;;;24.40;95.60;;;;;;5002447;28;20576;-94
2021/07/23 12:40:06;;;;;;;5.95;4.10;;;24.40;96.00;;;;;;5005131;28;20285;-93
2021/07/23 12:42:31;;;;;;;6.40;4.60;;;24.50;95.60;;;;;;5019907;28;20489;-91
2021/07/23 12:44:58;;;;;;;8.05;4.28;;;24.50;95.60;;;;;;5003450;28;20256;-91